Saratoga, WY

7:26 AM MST on January 27, 2015 (GMT -0700)
MesoWest NORTH FRENCH CREEK WY US SNOTEL | Change Station
CLOSE
Current Station
Personal Weather Station
Location: Saratoga, WY
Elevation: 10129 ft
Nearby Weather Stations

Elev 10129 ft 41.33 °N, 106.38 °W | Updated 1 day ago

Clear
Clear
46 °F
Feels Like 46 °F
N
11
Wind Variable Wind from South
Gusts 16 mph

Today
High -- | Low -- °F
--% Chance of Precip.
Yesterday
High -- | Low -- °F
Precip. -- in
7:23 AM 5:16 PM
First Quarter, 54% visible
Pressure 30.30 in
Visibility 10.0 miles
Clouds Clear
Dew Point 27 °F
Humidity 44%
Rainfall 0.00 in
Snow Depth Not available.
UV 0 out of 12
Pollen 2.60 out of 12
Air Quality Not available.
Flu Activity Not available.
METAR KSAA 271415Z AUTO 15011KT 10SM CLR 01/M05 A3030 RMK AO2

More Conditions Fewer Conditions

Pressure 30.30 in
Visibility 10.0 miles
Clouds Clear
Dew Point 27 °F
Humidity 44%
Rainfall 0.00 in
Snow Depth Not available.
UV 0 out of 12
Pollen 2.60 out of 12
Air Quality Not available.
Flu Activity Not available.
METAR KSAA 271415Z AUTO 15011KT 10SM CLR 01/M05 A3030 RMK AO2

More Conditions Fewer Conditions

10-Day Weather Forecast

Almanac

Astronomy

Jan. 27, 2015 Rise Set
Actual Time
Civil Twilight
Nautical Twilight
Astronomical Twilight
Moon
Length of Visible Light
Length of Day
Tomorrow will be .
, % of the Moon is Illuminated

Today's Extremes

State Highs State Lows

Community

WunderPhotos

Upload Photos

1,790,648 photos uploaded!

WunderBlogs® & News

Nearby

Air Quality

  Air Quality AQ Index Pollutant
Not available.

Snow Depth

Station Depth Elevation

Earthquake Activity

City Distance Mag. Time & Date
Minimum magnitude displayed is 2.5.

Coastal Water Temperatures

Place Temperature

Nearby Weather Stations